createdAt,value
2019-01-30T00:00:35.210Z,11.05
2019-01-30T00:01:12.965Z,11.50
2019-01-30T00:01:46.753Z,11.40
2019-01-30T00:02:20.286Z,10.93
2019-01-30T00:02:54.186Z,11.55
2019-01-30T00:03:27.719Z,11.57
2019-01-30T00:04:01.252Z,11.20
2019-01-30T00:04:34.755Z,10.75
2019-01-30T00:05:08.649Z,10.95
2019-01-30T00:05:42.205Z,11.38
2019-01-30T00:06:15.706Z,11.60
2019-01-30T00:07:02.775Z,10.55
2019-01-30T00:07:36.559Z,11.63
2019-01-30T00:08:29.186Z,10.28
2019-01-30T00:09:03.396Z,10.38
2019-01-30T00:09:36.902Z,11.50
2019-01-30T00:10:10.592Z,11.33
2019-01-30T00:10:44.097Z,11.03
2019-01-30T00:11:17.662Z,11.80
2019-01-30T00:11:51.423Z,11.50
2019-01-30T00:12:24.892Z,12.47
2019-01-30T00:12:58.399Z,12.43
2019-01-30T00:13:31.880Z,13.18
2019-01-30T00:14:05.386Z,12.28
2019-01-30T00:14:39.116Z,11.70
2019-01-30T00:15:12.899Z,13.25
2019-01-30T00:15:55.783Z,13.75
2019-01-30T00:16:21.645Z,14.55
2019-01-30T00:16:55.241Z,15.05
2019-01-30T00:17:28.737Z,16.12
2019-01-30T00:18:02.425Z,15.32
2019-01-30T00:18:35.900Z,17.05
2019-01-30T00:19:09.515Z,18.50
2019-01-30T00:19:43.022Z,21.57
2019-01-30T00:20:16.505Z,20.55
2019-01-30T00:20:50.002Z,21.02
2019-01-30T00:21:23.513Z,20.02
2019-01-30T00:21:56.980Z,17.98
2019-01-30T00:22:30.645Z,20.17
2019-01-30T00:23:04.208Z,22.20
2019-01-30T00:23:37.696Z,24.25
2019-01-30T00:24:11.209Z,23.38
2019-01-30T00:24:44.884Z,22.27
2019-01-30T00:25:18.384Z,19.10
2019-01-30T00:25:51.894Z,18.80
2019-01-30T00:26:25.337Z,20.27
2019-01-30T00:26:58.822Z,19.80
2019-01-30T00:27:32.304Z,20.17
2019-01-30T00:28:05.902Z,18.57
2019-01-30T00:28:39.411Z,16.48
2019-01-30T00:29:12.902Z,17.42
2019-01-30T00:29:46.385Z,18.60
2019-01-30T00:30:20.050Z,20.17
2019-01-30T00:30:53.542Z,18.95
2019-01-30T00:31:27.038Z,23.07
2019-01-30T00:32:00.544Z,23.65
2019-01-30T00:32:34.201Z,22.35
2019-01-30T00:33:07.698Z,23.47
2019-01-30T00:33:41.213Z,21.70
2019-01-30T00:34:14.728Z,20.80
2019-01-30T00:34:48.349Z,20.35
2019-01-30T00:35:22.024Z,18.57
2019-01-30T00:35:55.530Z,15.78
2019-01-30T00:36:29.122Z,15.40
2019-01-30T00:37:02.591Z,14.90
2019-01-30T00:37:36.092Z,15.40
2019-01-30T00:38:09.580Z,14.38
2019-01-30T00:38:43.196Z,13.08
2019-01-30T00:39:16.760Z,14.13
2019-01-30T00:39:50.279Z,12.75
2019-01-30T00:40:23.968Z,13.30
2019-01-30T00:40:57.597Z,11.75
2019-01-30T00:41:31.100Z,12.68
2019-01-30T00:42:04.629Z,12.75
2019-01-30T00:42:38.104Z,11.75
2019-01-30T00:43:11.815Z,12.18
2019-01-30T00:43:45.328Z,12.30
2019-01-30T00:44:18.897Z,12.15
2019-01-30T00:44:52.401Z,13.22
2019-01-30T00:45:25.914Z,11.50
2019-01-30T00:45:59.401Z,12.75
2019-01-30T00:46:32.908Z,13.75
2019-01-30T00:47:15.588Z,12.35
2019-01-30T00:47:41.672Z,12.03
2019-01-30T00:48:15.261Z,16.90
2019-01-30T00:48:48.663Z,16.17
2019-01-30T00:49:22.133Z,15.45
2019-01-30T00:49:55.631Z,18.60
2019-01-30T00:50:29.120Z,17.98
2019-01-30T00:51:02.586Z,18.05
2019-01-30T00:51:36.069Z,16.75
2019-01-30T00:52:09.557Z,18.62
2019-01-30T00:52:43.072Z,18.23
2019-01-30T00:53:16.589Z,18.87
2019-01-30T00:53:50.068Z,20.62
2019-01-30T00:54:32.053Z,18.85
2019-01-30T00:54:58.782Z,19.57
2019-01-30T00:55:32.263Z,20.02
2019-01-30T00:56:05.936Z,19.62
2019-01-30T00:56:39.477Z,18.15
2019-01-30T00:57:12.984Z,16.73
2019-01-30T00:57:46.472Z,17.52
2019-01-30T00:58:19.968Z,18.23
2019-01-30T00:58:53.508Z,16.82
2019-01-30T00:59:26.999Z,16.50
2019-01-30T01:00:00.472Z,16.07
2019-01-30T01:00:34.075Z,15.35
2019-01-30T01:01:26.681Z,13.68
2019-01-30T01:02:00.199Z,14.90
2019-01-30T01:02:33.689Z,14.23
2019-01-30T01:03:07.189Z,15.35
2019-01-30T01:03:40.621Z,15.30
2019-01-30T01:04:14.122Z,14.80
2019-01-30T01:04:47.602Z,13.70
2019-01-30T01:05:21.315Z,15.20
2019-01-30T01:05:54.993Z,14.95
2019-01-30T01:06:28.467Z,17.52
2019-01-30T01:07:01.969Z,15.45
2019-01-30T01:07:35.460Z,14.15
2019-01-30T01:08:09.148Z,15.08
2019-01-30T01:08:42.655Z,17.37
2019-01-30T01:09:16.146Z,16.05
2019-01-30T01:09:49.714Z,16.50
2019-01-30T01:10:23.184Z,16.45
2019-01-30T01:10:56.665Z,15.55
2019-01-30T01:11:30.184Z,16.40
2019-01-30T01:12:03.668Z,15.55
2019-01-30T01:12:37.316Z,17.42
2019-01-30T01:13:10.820Z,16.45
2019-01-30T01:13:44.373Z,18.75
2019-01-30T01:14:17.815Z,16.12
2019-01-30T01:14:51.321Z,15.53
2019-01-30T01:15:24.831Z,17.48
2019-01-30T01:15:58.331Z,17.20
2019-01-30T01:16:31.800Z,16.05
2019-01-30T01:17:05.301Z,15.88
2019-01-30T01:17:38.784Z,15.93
2019-01-30T01:18:12.291Z,17.77
2019-01-30T01:18:45.800Z,18.35
2019-01-30T01:19:19.283Z,18.00
2019-01-30T01:19:52.930Z,19.20
2019-01-30T01:20:26.602Z,16.50
2019-01-30T01:21:00.099Z,19.27
2019-01-30T01:21:33.580Z,16.52
2019-01-30T01:22:07.177Z,16.12
2019-01-30T01:22:40.681Z,18.45
2019-01-30T01:23:14.192Z,19.65
2019-01-30T01:23:47.696Z,19.23
2019-01-30T01:24:21.212Z,16.50
2019-01-30T01:24:54.758Z,18.00
2019-01-30T01:25:28.336Z,16.93
2019-01-30T01:26:01.874Z,16.62
2019-01-30T01:26:35.536Z,17.95
2019-01-30T01:27:09.153Z,15.75
2019-01-30T01:27:42.788Z,14.78
2019-01-30T01:28:16.317Z,15.10
2019-01-30T01:28:49.802Z,16.15
2019-01-30T01:29:23.272Z,14.18
2019-01-30T01:29:56.755Z,15.50
2019-01-30T01:30:30.325Z,12.78
2019-01-30T01:31:03.827Z,12.98
2019-01-30T01:31:37.301Z,14.70
2019-01-30T01:32:10.795Z,14.10
2019-01-30T01:32:46.778Z,13.98
2019-01-30T01:33:20.703Z,13.55
2019-01-30T01:33:54.201Z,13.48
2019-01-30T01:34:27.723Z,12.80
2019-01-30T01:35:01.193Z,12.50
2019-01-30T01:35:34.681Z,12.70
2019-01-30T01:36:08.181Z,13.50
2019-01-30T01:36:41.669Z,13.35
2019-01-30T01:37:15.149Z,12.98
2019-01-30T01:37:48.640Z,12.18
2019-01-30T01:38:22.104Z,12.15
2019-01-30T01:38:55.589Z,12.53
2019-01-30T01:39:29.091Z,13.00
2019-01-30T01:40:02.636Z,12.80
2019-01-30T01:40:36.165Z,11.93
2019-01-30T01:41:09.634Z,13.13
2019-01-30T01:41:43.136Z,12.82
2019-01-30T01:42:16.648Z,12.13
2019-01-30T01:42:50.162Z,12.63
2019-01-30T01:43:23.648Z,13.03
2019-01-30T01:43:57.157Z,12.50
2019-01-30T01:44:30.576Z,12.50
2019-01-30T01:45:04.541Z,12.73
2019-01-30T01:45:38.042Z,13.08
2019-01-30T01:46:11.525Z,12.20
2019-01-30T01:46:45.012Z,11.30
2019-01-30T01:47:21.134Z,12.37
2019-01-30T01:47:56.564Z,12.15
2019-01-30T01:48:31.946Z,14.10
2019-01-30T01:49:07.417Z,11.70
2019-01-30T01:49:41.065Z,12.33
2019-01-30T01:50:15.591Z,12.85
2019-01-30T01:50:49.091Z,13.28
2019-01-30T01:51:22.581Z,11.80
2019-01-30T01:51:56.089Z,13.70
2019-01-30T01:52:29.601Z,13.15
2019-01-30T01:53:03.093Z,13.55
2019-01-30T01:53:36.596Z,12.40
2019-01-30T01:54:10.105Z,12.80
2019-01-30T01:54:43.596Z,13.50
2019-01-30T01:55:17.099Z,13.53
2019-01-30T01:55:50.579Z,12.85
2019-01-30T01:56:24.060Z,13.10
2019-01-30T01:56:57.549Z,13.48
2019-01-30T01:57:31.083Z,12.30
2019-01-30T01:58:04.589Z,13.20
2019-01-30T01:58:38.071Z,13.53
2019-01-30T01:59:11.574Z,12.55
2019-01-30T01:59:45.061Z,14.40
2019-01-30T02:00:19.560Z,13.08
2019-01-30T02:00:53.047Z,13.85
2019-01-30T02:01:26.532Z,14.15
2019-01-30T02:01:59.950Z,13.18
2019-01-30T02:02:33.357Z,13.60
2019-01-30T02:03:06.862Z,13.45
2019-01-30T02:03:40.522Z,13.43
2019-01-30T02:04:13.917Z,13.68
2019-01-30T02:04:47.494Z,13.80
2019-01-30T02:05:21.517Z,14.25
2019-01-30T02:05:55.001Z,13.98
2019-01-30T02:06:28.493Z,13.55
2019-01-30T02:07:01.980Z,13.88
2019-01-30T02:07:35.461Z,14.10
2019-01-30T02:08:08.967Z,14.20
2019-01-30T02:08:42.476Z,15.15
2019-01-30T02:09:16.021Z,12.70
2019-01-30T02:09:49.530Z,13.35
2019-01-30T02:10:23.573Z,14.05
2019-01-30T02:10:57.251Z,14.93
2019-01-30T02:11:30.767Z,14.33
2019-01-30T02:12:04.565Z,14.47
2019-01-30T02:12:38.129Z,14.13
2019-01-30T02:13:11.604Z,14.25
2019-01-30T02:13:45.104Z,13.90
2019-01-30T02:14:18.565Z,13.80
2019-01-30T02:14:52.068Z,14.87
2019-01-30T02:15:25.546Z,14.05
2019-01-30T02:15:59.068Z,14.15
2019-01-30T02:16:32.555Z,13.85
2019-01-30T02:17:05.980Z,15.25
2019-01-30T02:17:39.486Z,14.05
2019-01-30T02:18:12.983Z,12.70
2019-01-30T02:18:46.537Z,14.25
2019-01-30T02:19:20.065Z,13.68
2019-01-30T02:19:53.550Z,15.38
2019-01-30T02:20:28.394Z,13.08
2019-01-30T02:21:01.881Z,13.65
2019-01-30T02:21:35.383Z,14.28
2019-01-30T02:22:08.881Z,14.47
2019-01-30T02:22:42.357Z,13.85
2019-01-30T02:23:15.840Z,15.08
2019-01-30T02:23:49.319Z,13.78
2019-01-30T02:24:22.860Z,13.85
2019-01-30T02:24:56.361Z,13.05
2019-01-30T02:25:29.838Z,14.20
2019-01-30T02:26:03.327Z,13.93
2019-01-30T02:26:36.796Z,13.93
2019-01-30T02:27:10.316Z,13.60
2019-01-30T02:27:43.775Z,13.68
2019-01-30T02:28:17.262Z,14.65
2019-01-30T02:28:50.746Z,12.40
2019-01-30T02:29:24.233Z,14.20
2019-01-30T02:29:57.705Z,14.07
2019-01-30T02:30:31.205Z,13.62
2019-01-30T02:31:04.724Z,13.65
2019-01-30T02:31:38.310Z,13.98
2019-01-30T02:32:11.863Z,12.65
2019-01-30T02:32:45.357Z,14.83
2019-01-30T02:33:18.833Z,15.55
2019-01-30T02:33:52.341Z,15.65
2019-01-30T02:34:25.816Z,13.78
2019-01-30T02:34:59.328Z,13.62
2019-01-30T02:35:32.944Z,14.50
2019-01-30T02:36:06.517Z,13.60
2019-01-30T02:36:58.587Z,15.58
2019-01-30T02:37:32.065Z,14.28
2019-01-30T02:38:05.650Z,12.35
2019-01-30T02:38:39.133Z,14.38
2019-01-30T02:39:12.625Z,14.50
2019-01-30T02:39:46.112Z,15.20
2019-01-30T02:40:20.316Z,12.73
2019-01-30T02:40:53.814Z,14.70
2019-01-30T02:41:27.340Z,13.83
2019-01-30T02:42:00.837Z,13.10
2019-01-30T02:42:34.320Z,15.65
2019-01-30T02:43:07.791Z,15.43
2019-01-30T02:43:41.285Z,14.83
2019-01-30T02:44:14.761Z,14.23
2019-01-30T02:44:48.246Z,14.85
2019-01-30T02:45:22.614Z,16.65
2019-01-30T02:45:56.096Z,15.10
2019-01-30T02:46:29.592Z,14.05
2019-01-30T02:47:03.055Z,17.25
2019-01-30T02:47:36.538Z,18.30
2019-01-30T02:48:10.017Z,16.15
2019-01-30T02:48:43.496Z,16.90
2019-01-30T02:49:17.001Z,14.65
2019-01-30T02:49:50.463Z,14.95
2019-01-30T02:50:23.939Z,17.00
2019-01-30T02:50:57.410Z,15.50
2019-01-30T02:51:30.913Z,15.75
2019-01-30T02:52:04.741Z,13.30
2019-01-30T02:52:38.216Z,13.70
2019-01-30T02:53:11.684Z,15.78
2019-01-30T02:53:45.184Z,15.63
2019-01-30T02:54:18.715Z,15.65
2019-01-30T02:54:52.212Z,14.93
2019-01-30T02:55:25.686Z,15.05
2019-01-30T02:55:59.100Z,15.58
2019-01-30T02:56:32.521Z,15.08
2019-01-30T02:57:06.016Z,14.95
2019-01-30T02:57:39.798Z,15.58
2019-01-30T02:58:13.298Z,15.78
2019-01-30T02:58:46.802Z,15.72
2019-01-30T02:59:20.306Z,15.72
2019-01-30T02:59:53.786Z,13.50
2019-01-30T03:00:28.156Z,15.40
2019-01-30T03:01:01.652Z,16.30
2019-01-30T03:01:43.608Z,15.35
2019-01-30T03:02:23.749Z,16.10
2019-01-30T03:02:57.281Z,15.78
2019-01-30T03:03:30.801Z,15.85
2019-01-30T03:04:04.495Z,14.95
2019-01-30T03:04:38.168Z,15.78
2019-01-30T03:05:11.795Z,14.75
2019-01-30T03:05:45.303Z,15.98
2019-01-30T03:06:18.790Z,16.93
2019-01-30T03:06:52.444Z,16.02
2019-01-30T03:07:25.912Z,17.02
2019-01-30T03:07:59.377Z,16.42
2019-01-30T03:08:32.855Z,16.80
2019-01-30T03:09:07.114Z,17.20
2019-01-30T03:09:40.594Z,15.65
2019-01-30T03:10:15.129Z,17.05
2019-01-30T03:10:48.701Z,17.73
2019-01-30T03:11:22.207Z,15.53
2019-01-30T03:11:55.696Z,15.83
2019-01-30T03:12:29.197Z,17.70
2019-01-30T03:13:02.634Z,17.65
2019-01-30T03:13:36.178Z,17.32
2019-01-30T03:14:09.650Z,17.07
2019-01-30T03:14:43.138Z,17.73
2019-01-30T03:15:16.607Z,18.05
2019-01-30T03:15:50.099Z,19.12
2019-01-30T03:16:23.590Z,17.42
2019-01-30T03:16:57.103Z,18.73
2019-01-30T03:17:30.590Z,17.62
2019-01-30T03:18:04.064Z,17.85
2019-01-30T03:18:37.489Z,19.90
2019-01-30T03:19:10.960Z,17.60
2019-01-30T03:19:44.460Z,19.73
2019-01-30T03:20:18.949Z,17.90
2019-01-30T03:20:52.564Z,17.65
2019-01-30T03:21:26.049Z,17.73
2019-01-30T03:21:59.536Z,18.30
2019-01-30T03:22:33.057Z,19.73
2019-01-30T03:23:06.632Z,17.45
2019-01-30T03:23:40.206Z,18.70
2019-01-30T03:24:13.700Z,19.50
2019-01-30T03:24:47.190Z,19.20
2019-01-30T03:25:21.164Z,19.27
2019-01-30T03:25:54.675Z,19.07
2019-01-30T03:26:28.186Z,18.12
2019-01-30T03:27:01.669Z,18.00
2019-01-30T03:27:35.163Z,18.75
2019-01-30T03:28:08.743Z,21.30
2019-01-30T03:28:42.209Z,18.82
2019-01-30T03:29:15.716Z,18.12
2019-01-30T03:29:49.214Z,18.37
2019-01-30T03:30:23.873Z,17.87
2019-01-30T03:30:57.394Z,18.87
2019-01-30T03:31:30.881Z,18.65
2019-01-30T03:32:04.613Z,18.12
2019-01-30T03:32:38.101Z,18.00
2019-01-30T03:33:11.584Z,18.98
2019-01-30T03:33:45.177Z,17.80
2019-01-30T03:34:18.587Z,19.00
2019-01-30T03:34:52.299Z,19.70
2019-01-30T03:35:25.790Z,18.52
2019-01-30T03:35:59.306Z,17.80
2019-01-30T03:36:32.800Z,16.80
2019-01-30T03:37:06.296Z,17.48
2019-01-30T03:37:39.788Z,19.32
2019-01-30T03:38:13.289Z,16.77
2019-01-30T03:38:46.816Z,18.05
2019-01-30T03:39:20.323Z,18.42
2019-01-30T03:39:54.098Z,18.52
2019-01-30T03:40:27.606Z,19.00
2019-01-30T03:41:01.495Z,16.90
2019-01-30T03:41:34.989Z,17.80
2019-01-30T03:42:08.471Z,16.60
2019-01-30T03:42:41.992Z,17.52
2019-01-30T03:43:15.485Z,17.73
2019-01-30T03:43:48.968Z,17.67
2019-01-30T03:44:22.474Z,17.77
2019-01-30T03:44:55.982Z,17.37
2019-01-30T03:45:29.500Z,17.77
2019-01-30T03:46:02.977Z,19.20
2019-01-30T03:46:36.532Z,18.82
2019-01-30T03:47:10.020Z,17.82
2019-01-30T03:47:43.484Z,18.15
2019-01-30T03:48:17.035Z,17.73
2019-01-30T03:48:50.538Z,17.95
2019-01-30T03:49:24.034Z,17.23
2019-01-30T03:49:57.733Z,18.05
2019-01-30T03:50:31.249Z,18.25
2019-01-30T03:51:04.866Z,18.17
2019-01-30T03:51:38.597Z,18.48
2019-01-30T03:52:12.080Z,17.90
2019-01-30T03:52:45.667Z,18.02
2019-01-30T03:53:19.307Z,18.75
2019-01-30T03:53:52.921Z,18.30
2019-01-30T03:54:26.411Z,17.80
2019-01-30T03:54:59.896Z,18.85
2019-01-30T03:55:33.421Z,18.02
2019-01-30T03:56:06.937Z,17.07
2019-01-30T03:56:40.421Z,18.15
2019-01-30T03:57:13.938Z,17.98
2019-01-30T03:57:47.404Z,18.12
2019-01-30T03:58:20.903Z,17.70
2019-01-30T03:58:54.402Z,17.07
2019-01-30T03:59:27.878Z,19.07
2019-01-30T04:00:01.423Z,19.30
2019-01-30T04:00:34.889Z,18.35
2019-01-30T04:01:08.364Z,19.32
2019-01-30T04:01:41.856Z,18.27
2019-01-30T04:02:15.336Z,18.57
2019-01-30T04:02:48.847Z,18.65
2019-01-30T04:03:22.382Z,18.57
2019-01-30T04:03:55.868Z,18.30
2019-01-30T04:04:29.355Z,17.40
2019-01-30T04:05:02.857Z,22.48
2019-01-30T04:05:36.341Z,19.37
2019-01-30T04:06:09.809Z,20.50
2019-01-30T04:06:43.313Z,18.57
2019-01-30T04:07:16.830Z,17.95
2019-01-30T04:07:50.310Z,19.85
2019-01-30T04:08:23.791Z,19.48
2019-01-30T04:08:58.243Z,18.77
2019-01-30T04:09:31.809Z,18.10
2019-01-30T04:10:05.793Z,18.90
2019-01-30T04:10:39.297Z,17.23
2019-01-30T04:11:12.876Z,18.57
2019-01-30T04:11:46.373Z,19.07
2019-01-30T04:12:19.865Z,17.67
2019-01-30T04:12:53.589Z,17.40
2019-01-30T04:13:27.072Z,17.52
2019-01-30T04:14:00.843Z,16.27
2019-01-30T04:14:34.440Z,16.65
2019-01-30T04:15:08.374Z,17.75
2019-01-30T04:15:42.136Z,16.30
2019-01-30T04:16:15.625Z,18.32
2019-01-30T04:16:49.096Z,15.95
2019-01-30T04:17:22.579Z,17.35
2019-01-30T04:17:56.130Z,16.45
2019-01-30T04:18:29.621Z,17.37
2019-01-30T04:19:03.102Z,17.62
2019-01-30T04:19:36.590Z,18.05
2019-01-30T04:20:10.770Z,15.55
2019-01-30T04:20:44.253Z,15.88
2019-01-30T04:21:17.745Z,16.35
2019-01-30T04:21:51.233Z,16.37
2019-01-30T04:22:24.710Z,16.20
2019-01-30T04:22:58.184Z,17.60
2019-01-30T04:23:31.681Z,14.85
2019-01-30T04:24:05.436Z,16.07
2019-01-30T04:24:42.879Z,15.45
2019-01-30T04:25:16.518Z,14.75
2019-01-30T04:25:49.997Z,15.48
2019-01-30T04:26:24.109Z,15.68
2019-01-30T04:26:57.787Z,17.95
2019-01-30T04:27:31.254Z,16.10
2019-01-30T04:28:04.845Z,15.85
2019-01-30T04:28:38.332Z,15.78
2019-01-30T04:29:11.837Z,15.83
2019-01-30T04:29:45.360Z,15.68
2019-01-30T04:30:20.075Z,16.07
2019-01-30T04:30:53.799Z,15.50
2019-01-30T04:31:37.582Z,16.52
2019-01-30T04:32:02.527Z,16.05
2019-01-30T04:32:35.987Z,15.08
2019-01-30T04:33:09.482Z,16.70
2019-01-30T04:33:42.957Z,15.25
2019-01-30T04:34:16.441Z,16.05
2019-01-30T04:34:49.940Z,16.20
2019-01-30T04:35:23.422Z,16.25
2019-01-30T04:35:56.927Z,15.80
2019-01-30T04:36:30.459Z,16.82
2019-01-30T04:37:04.040Z,16.35
2019-01-30T04:37:37.524Z,16.12
2019-01-30T04:38:11.015Z,17.35
2019-01-30T04:38:44.557Z,16.27
2019-01-30T04:39:18.038Z,17.15
2019-01-30T04:39:51.550Z,17.05
2019-01-30T04:40:25.041Z,16.57
2019-01-30T04:40:58.526Z,16.62
2019-01-30T04:41:51.112Z,17.17
2019-01-30T04:42:24.606Z,15.88
2019-01-30T04:42:58.082Z,17.75
2019-01-30T04:43:31.561Z,16.80
2019-01-30T04:44:05.068Z,17.37
2019-01-30T04:44:38.553Z,17.65
2019-01-30T04:45:13.642Z,17.65
2019-01-30T04:45:47.176Z,18.17
2019-01-30T04:46:20.672Z,17.95
2019-01-30T04:46:54.171Z,18.32
2019-01-30T04:47:27.695Z,19.45
2019-01-30T04:48:01.165Z,18.35
2019-01-30T04:48:34.665Z,18.60
2019-01-30T04:49:08.134Z,19.02
2019-01-30T04:49:41.577Z,18.45
2019-01-30T04:50:15.052Z,18.60
2019-01-30T04:50:48.634Z,18.67
2019-01-30T04:51:22.120Z,18.85
2019-01-30T04:51:57.877Z,17.65
2019-01-30T04:52:31.548Z,19.42
2019-01-30T04:53:05.024Z,19.12
2019-01-30T04:53:38.507Z,19.20
2019-01-30T04:54:11.990Z,19.75
2019-01-30T04:54:45.471Z,18.85
2019-01-30T04:55:19.208Z,20.12
2019-01-30T04:55:52.760Z,19.37
2019-01-30T04:56:26.337Z,19.25
2019-01-30T04:56:59.820Z,19.37
2019-01-30T04:57:33.403Z,20.37
2019-01-30T04:58:07.006Z,18.62
2019-01-30T04:58:40.525Z,20.82
2019-01-30T04:59:14.029Z,18.87
2019-01-30T04:59:47.553Z,17.10
2019-01-30T05:00:22.208Z,19.95
2019-01-30T05:00:55.712Z,18.85
2019-01-30T05:01:29.282Z,19.10
2019-01-30T05:02:21.880Z,19.12
2019-01-30T05:02:55.406Z,18.48
2019-01-30T05:03:28.915Z,19.90
2019-01-30T05:04:02.547Z,19.27
2019-01-30T05:04:36.035Z,19.32
2019-01-30T05:05:09.917Z,19.17
2019-01-30T05:05:43.412Z,19.55
2019-01-30T05:06:16.914Z,19.10
2019-01-30T05:07:09.528Z,19.52
2019-01-30T05:07:43.078Z,18.37
2019-01-30T05:08:16.584Z,17.85
2019-01-30T05:08:50.092Z,19.10
2019-01-30T05:09:23.601Z,20.95
2019-01-30T05:09:57.017Z,19.32
2019-01-30T05:10:30.536Z,17.98
2019-01-30T05:11:04.063Z,19.17
2019-01-30T05:11:37.623Z,19.73
2019-01-30T05:12:11.132Z,19.07
2019-01-30T05:12:44.630Z,19.30
2019-01-30T05:13:18.139Z,21.70
2019-01-30T05:13:51.695Z,19.25
2019-01-30T05:14:25.202Z,19.65
2019-01-30T05:14:58.690Z,19.62
2019-01-30T05:15:32.192Z,19.92
2019-01-30T05:16:05.689Z,20.45
2019-01-30T05:16:39.183Z,20.45
2019-01-30T05:17:12.677Z,18.20
2019-01-30T05:17:46.368Z,19.27
2019-01-30T05:18:19.852Z,20.65
2019-01-30T05:18:53.347Z,19.98
2019-01-30T05:19:26.824Z,19.42
2019-01-30T05:20:00.329Z,21.60
2019-01-30T05:20:33.804Z,20.62
2019-01-30T05:21:07.392Z,20.05
2019-01-30T05:21:41.154Z,19.00
2019-01-30T05:22:14.636Z,20.30
2019-01-30T05:22:48.136Z,19.98
2019-01-30T05:23:21.627Z,21.30
2019-01-30T05:23:55.104Z,22.22
2019-01-30T05:24:28.652Z,18.90
2019-01-30T05:25:02.166Z,20.30
2019-01-30T05:25:35.646Z,18.35
2019-01-30T05:26:09.135Z,20.32
2019-01-30T05:26:42.619Z,20.97
2019-01-30T05:27:16.285Z,20.60
2019-01-30T05:27:49.812Z,20.50
2019-01-30T05:28:23.293Z,20.62
2019-01-30T05:28:56.784Z,20.68
2019-01-30T05:29:30.264Z,20.52
2019-01-30T05:30:05.315Z,21.75
2019-01-30T05:30:38.913Z,20.68
2019-01-30T05:31:12.492Z,20.90
2019-01-30T05:31:45.921Z,21.17
2019-01-30T05:32:19.388Z,21.45
2019-01-30T05:32:52.897Z,21.15
2019-01-30T05:33:26.417Z,20.70
2019-01-30T05:34:00.010Z,19.52
2019-01-30T05:34:33.491Z,20.57
2019-01-30T05:35:06.989Z,20.25
2019-01-30T05:35:40.645Z,20.95
2019-01-30T05:36:14.163Z,21.15
2019-01-30T05:36:47.641Z,21.12
2019-01-30T05:37:21.120Z,20.68
2019-01-30T05:37:54.900Z,21.55
2019-01-30T05:38:28.422Z,21.10
2019-01-30T05:39:02.001Z,20.92
2019-01-30T05:39:35.533Z,21.60
2019-01-30T05:40:10.209Z,20.70
2019-01-30T05:40:43.780Z,19.80
2019-01-30T05:41:17.277Z,22.95
2019-01-30T05:41:50.785Z,20.17
2019-01-30T05:42:24.370Z,21.10
2019-01-30T05:42:57.864Z,20.55
2019-01-30T05:43:31.404Z,21.00
2019-01-30T05:44:04.981Z,20.05
2019-01-30T05:44:38.448Z,20.20
2019-01-30T05:45:14.816Z,22.90
2019-01-30T05:45:48.300Z,19.40
2019-01-30T05:46:21.867Z,21.90
2019-01-30T05:46:55.368Z,20.45
2019-01-30T05:47:28.884Z,20.50
2019-01-30T05:48:02.440Z,20.75
2019-01-30T05:48:35.950Z,18.65
2019-01-30T05:49:09.535Z,21.15
2019-01-30T05:49:43.388Z,21.20
2019-01-30T05:50:16.985Z,18.80
2019-01-30T05:50:50.484Z,18.62
2019-01-30T05:51:23.966Z,20.43
2019-01-30T05:51:57.448Z,19.02
2019-01-30T05:52:30.983Z,20.88
2019-01-30T05:53:04.610Z,18.40
2019-01-30T05:53:38.117Z,19.98
2019-01-30T05:54:11.592Z,18.52
2019-01-30T05:54:45.073Z,20.02
2019-01-30T05:55:18.572Z,19.48
2019-01-30T05:55:52.053Z,18.85
2019-01-30T05:56:25.603Z,18.95
2019-01-30T05:56:59.111Z,18.55
2019-01-30T05:57:32.617Z,19.05
2019-01-30T05:58:06.138Z,17.73
2019-01-30T05:58:39.669Z,19.27
2019-01-30T05:59:13.119Z,17.87
2019-01-30T05:59:46.612Z,19.37
2019-01-30T06:00:26.384Z,18.35
2019-01-30T06:00:59.871Z,19.65
2019-01-30T06:01:33.399Z,17.95
2019-01-30T06:02:12.083Z,17.45
2019-01-30T06:02:42.588Z,19.10
2019-01-30T06:03:16.185Z,17.40
2019-01-30T06:03:49.699Z,18.85
2019-01-30T06:04:23.289Z,17.98
2019-01-30T06:04:56.856Z,17.82
2019-01-30T06:05:30.501Z,18.15
2019-01-30T06:06:04.292Z,18.82
2019-01-30T06:06:37.813Z,17.73
2019-01-30T06:07:11.324Z,18.32
2019-01-30T06:07:44.901Z,17.87
2019-01-30T06:08:18.396Z,18.07
2019-01-30T06:08:51.978Z,17.25
2019-01-30T06:09:25.529Z,17.62
2019-01-30T06:09:59.031Z,17.17
2019-01-30T06:10:32.561Z,18.05
2019-01-30T06:11:06.048Z,17.55
2019-01-30T06:11:39.541Z,16.55
2019-01-30T06:12:13.031Z,16.60
2019-01-30T06:12:46.541Z,17.07
2019-01-30T06:13:20.032Z,18.27
2019-01-30T06:13:53.528Z,16.82
2019-01-30T06:14:27.039Z,17.00
2019-01-30T06:15:00.557Z,16.05
2019-01-30T06:15:34.090Z,18.73
2019-01-30T06:16:07.661Z,17.27
2019-01-30T06:16:41.076Z,18.23
2019-01-30T06:17:14.670Z,16.10
2019-01-30T06:17:48.207Z,17.67
2019-01-30T06:18:21.727Z,16.62
2019-01-30T06:18:55.361Z,16.40
2019-01-30T06:19:28.856Z,16.62
2019-01-30T06:20:02.847Z,16.85
2019-01-30T06:20:36.341Z,15.98
2019-01-30T06:21:10.120Z,16.25
2019-01-30T06:21:43.676Z,15.20
2019-01-30T06:22:17.414Z,16.65
2019-01-30T06:22:51.051Z,15.70
2019-01-30T06:23:24.818Z,15.90
2019-01-30T06:23:58.377Z,16.17
2019-01-30T06:24:31.865Z,16.05
2019-01-30T06:25:05.759Z,16.10
2019-01-30T06:25:39.354Z,15.58
2019-01-30T06:26:12.957Z,16.45
2019-01-30T06:26:46.447Z,15.90
2019-01-30T06:27:20.025Z,15.32
2019-01-30T06:27:53.503Z,17.42
2019-01-30T06:28:29.318Z,15.23
2019-01-30T06:29:02.410Z,14.13
2019-01-30T06:29:35.894Z,15.65
2019-01-30T06:30:10.452Z,15.23
2019-01-30T06:30:43.933Z,14.87
2019-01-30T06:31:17.628Z,14.90
2019-01-30T06:31:51.161Z,15.30
2019-01-30T06:32:24.667Z,15.60
2019-01-30T06:32:58.277Z,14.25
2019-01-30T06:33:31.836Z,15.10
2019-01-30T06:34:05.514Z,14.63
2019-01-30T06:34:39.061Z,15.45
2019-01-30T06:35:12.821Z,14.93
2019-01-30T06:35:46.377Z,14.73
2019-01-30T06:36:19.882Z,15.43
2019-01-30T06:36:53.489Z,13.70
2019-01-30T06:37:27.129Z,14.50
2019-01-30T06:38:00.678Z,13.70
2019-01-30T06:38:34.200Z,13.80
2019-01-30T06:39:08.241Z,13.60
2019-01-30T06:39:41.792Z,14.05
2019-01-30T06:40:44.297Z,13.28
2019-01-30T06:41:18.244Z,13.65
2019-01-30T06:41:51.839Z,12.75
2019-01-30T06:42:25.487Z,13.95
2019-01-30T06:43:02.660Z,14.25
2019-01-30T06:43:35.718Z,14.78
2019-01-30T06:44:09.427Z,13.48
2019-01-30T06:44:42.983Z,13.90
2019-01-30T06:45:16.589Z,13.00
2019-01-30T06:45:50.182Z,14.35
2019-01-30T06:46:23.656Z,14.80
2019-01-30T06:46:57.275Z,13.83
2019-01-30T06:47:30.937Z,14.65
2019-01-30T06:48:05.138Z,13.62
2019-01-30T06:48:38.744Z,14.63
2019-01-30T06:49:12.266Z,12.58
2019-01-30T06:49:45.850Z,13.50
2019-01-30T06:50:19.427Z,13.30
2019-01-30T06:50:52.988Z,13.88
2019-01-30T06:51:26.508Z,13.65
2019-01-30T06:52:00.015Z,13.70
2019-01-30T06:52:33.525Z,13.55
2019-01-30T06:53:07.089Z,12.68
2019-01-30T06:53:40.602Z,14.28
2019-01-30T06:54:14.313Z,13.10
2019-01-30T06:54:47.924Z,14.00
2019-01-30T06:55:23.918Z,13.10
2019-01-30T06:55:57.431Z,12.43
2019-01-30T06:56:30.953Z,13.60
2019-01-30T06:57:04.479Z,13.48
2019-01-30T06:57:37.974Z,13.03
2019-01-30T06:58:11.452Z,13.88
2019-01-30T06:58:45.232Z,13.55
2019-01-30T06:59:18.826Z,13.75
2019-01-30T06:59:52.309Z,13.48
2019-01-30T07:00:26.838Z,12.35
2019-01-30T07:01:00.323Z,12.30
2019-01-30T07:01:33.892Z,12.37
2019-01-30T07:02:07.669Z,12.63
2019-01-30T07:02:41.196Z,13.50
2019-01-30T07:03:15.055Z,13.55
2019-01-30T07:03:48.609Z,13.45
2019-01-30T07:04:22.213Z,13.00
2019-01-30T07:04:55.837Z,12.90
2019-01-30T07:05:29.354Z,13.60
2019-01-30T07:06:03.007Z,13.90
2019-01-30T07:06:36.593Z,12.50
2019-01-30T07:07:10.695Z,13.53
2019-01-30T07:07:44.212Z,12.43
2019-01-30T07:08:17.787Z,13.48
2019-01-30T07:08:51.351Z,12.85
2019-01-30T07:09:24.865Z,13.28
2019-01-30T07:09:58.370Z,13.22
2019-01-30T07:10:31.873Z,13.58
2019-01-30T07:11:10.566Z,13.13
2019-01-30T07:11:40.617Z,12.80
2019-01-30T07:12:14.105Z,13.25
2019-01-30T07:12:47.844Z,12.70
2019-01-30T07:13:24.021Z,11.90
2019-01-30T07:13:56.680Z,12.82
2019-01-30T07:14:30.193Z,11.63
2019-01-30T07:15:03.908Z,12.07
2019-01-30T07:15:37.451Z,12.88
2019-01-30T07:16:10.982Z,12.65